createdAt,value
2017-09-05T00:01:55.868Z,86.50
2017-09-05T00:04:21.929Z,86.50
2017-09-05T00:06:47.998Z,86.60
2017-09-05T00:12:40.585Z,86.80
2017-09-05T00:15:10.569Z,87.60
2017-09-05T00:17:51.578Z,88.00
2017-09-05T00:23:18.085Z,87.40
2017-09-05T00:25:44.145Z,88.10
2017-09-05T00:28:10.212Z,87.70
2017-09-05T00:30:36.250Z,87.40
2017-09-05T00:33:02.270Z,87.90
2017-09-05T00:35:28.325Z,88.40
2017-09-05T00:37:54.384Z,88.50
2017-09-05T00:40:20.438Z,88.70
2017-09-05T00:42:46.494Z,88.60
2017-09-05T00:45:12.542Z,88.50
2017-09-05T00:47:38.598Z,88.50
2017-09-05T00:50:04.642Z,88.60
2017-09-05T00:52:30.697Z,89.50
2017-09-05T00:54:56.713Z,89.30
2017-09-05T00:57:22.738Z,89.80
2017-09-05T00:59:48.793Z,90.00
2017-09-05T01:02:14.863Z,90.00
2017-09-05T01:04:40.909Z,89.50
2017-09-05T01:07:06.981Z,89.50
2017-09-05T01:09:33.021Z,90.00
2017-09-05T01:11:59.045Z,89.50
2017-09-05T01:14:25.105Z,89.30
2017-09-05T01:16:51.137Z,89.70
2017-09-05T01:19:17.177Z,90.20
2017-09-05T01:21:43.210Z,90.10
2017-09-05T01:24:09.232Z,90.20
2017-09-05T01:26:35.259Z,90.20
2017-09-05T01:29:01.318Z,90.00
2017-09-05T01:31:27.366Z,90.20
2017-09-05T01:33:53.412Z,90.20
2017-09-05T01:36:19.440Z,90.30
2017-09-05T01:38:45.477Z,90.20
2017-09-05T01:41:11.501Z,90.50
2017-09-05T01:43:37.520Z,90.40
2017-09-05T01:46:03.558Z,90.70
2017-09-05T01:48:29.581Z,90.50
2017-09-05T01:50:55.625Z,90.20
2017-09-05T01:53:21.673Z,90.20
2017-09-05T01:55:47.708Z,90.50
2017-09-05T01:58:13.738Z,90.70
2017-09-05T02:00:39.799Z,90.70
2017-09-05T02:03:05.817Z,90.60
2017-09-05T02:05:31.847Z,90.80
2017-09-05T02:07:57.849Z,90.70
2017-09-05T02:10:23.881Z,90.60
2017-09-05T02:12:49.905Z,90.60
2017-09-05T02:15:16.109Z,90.60
2017-09-05T02:17:42.130Z,90.80
2017-09-05T02:20:08.161Z,90.70
2017-09-05T02:22:34.210Z,90.70
2017-09-05T02:25:00.238Z,90.90
2017-09-05T02:27:26.261Z,91.00
2017-09-05T02:29:52.281Z,91.20
2017-09-05T02:32:18.339Z,91.00
2017-09-05T02:34:44.377Z,91.10
2017-09-05T02:37:10.405Z,91.20
2017-09-05T02:39:37.192Z,91.40
2017-09-05T02:42:03.237Z,91.40
2017-09-05T02:44:29.262Z,91.30
2017-09-05T02:46:55.293Z,91.20
2017-09-05T02:49:21.312Z,91.30
2017-09-05T02:51:47.364Z,91.40
2017-09-05T02:54:13.399Z,91.50
2017-09-05T02:56:39.460Z,91.50
2017-09-05T02:59:05.487Z,91.50
2017-09-05T03:01:31.525Z,91.50
2017-09-05T03:03:57.558Z,91.20
2017-09-05T03:06:23.611Z,91.50
2017-09-05T03:08:49.636Z,91.50
2017-09-05T03:11:15.649Z,91.50
2017-09-05T03:13:41.672Z,91.50
2017-09-05T03:16:07.716Z,91.70
2017-09-05T03:18:33.761Z,91.50
2017-09-05T03:20:59.810Z,91.70
2017-09-05T03:23:25.860Z,91.60
2017-09-05T03:25:51.900Z,91.60
2017-09-05T03:28:17.932Z,91.80
2017-09-05T03:30:43.965Z,91.80
2017-09-05T03:33:09.978Z,91.80
2017-09-05T03:35:36.024Z,91.80
2017-09-05T03:38:02.087Z,91.90
2017-09-05T03:40:28.121Z,92.00
2017-09-05T03:42:54.129Z,91.70
2017-09-05T03:45:20.165Z,91.90
2017-09-05T03:47:46.213Z,91.90
2017-09-05T03:50:12.266Z,92.00
2017-09-05T03:52:38.298Z,92.00
2017-09-05T03:55:04.331Z,91.90
2017-09-05T03:57:30.372Z,91.80
2017-09-05T03:59:56.404Z,91.90
2017-09-05T04:02:22.429Z,91.80
2017-09-05T04:04:48.467Z,91.90
2017-09-05T04:07:14.489Z,91.90
2017-09-05T04:09:40.537Z,91.80
2017-09-05T04:12:06.594Z,91.90
2017-09-05T04:14:32.662Z,91.60
2017-09-05T04:16:58.715Z,91.70
2017-09-05T04:19:24.745Z,91.60
2017-09-05T04:21:50.781Z,91.70
2017-09-05T04:24:16.809Z,91.80
2017-09-05T04:26:42.849Z,91.70
2017-09-05T04:29:08.865Z,92.10
2017-09-05T04:31:34.899Z,91.70
2017-09-05T04:34:00.932Z,91.80
2017-09-05T04:36:26.989Z,91.90
2017-09-05T04:38:53.044Z,92.00
2017-09-05T04:41:19.077Z,92.00
2017-09-05T04:43:45.113Z,91.90
2017-09-05T04:46:11.151Z,92.20
2017-09-05T04:48:37.179Z,92.00
2017-09-05T04:51:03.249Z,92.00
2017-09-05T04:53:29.282Z,92.00
2017-09-05T04:55:55.305Z,92.00
2017-09-05T04:58:21.329Z,91.90
2017-09-05T05:00:47.370Z,91.80
2017-09-05T05:03:13.417Z,91.80
2017-09-05T05:05:39.445Z,91.90
2017-09-05T05:08:05.488Z,91.90
2017-09-05T05:10:31.521Z,91.90
2017-09-05T05:12:57.569Z,91.90
2017-09-05T05:15:23.590Z,91.80
2017-09-05T05:17:49.629Z,91.80
2017-09-05T05:20:15.657Z,91.60
2017-09-05T05:22:41.752Z,91.80
2017-09-05T05:25:07.853Z,91.90
2017-09-05T05:27:33.881Z,91.70
2017-09-05T05:29:59.936Z,91.70
2017-09-05T05:32:25.952Z,91.80
2017-09-05T05:34:51.973Z,91.80
2017-09-05T05:37:18.098Z,91.80
2017-09-05T05:39:44.133Z,91.50
2017-09-05T05:42:10.161Z,91.70
2017-09-05T05:44:36.221Z,91.90
2017-09-05T05:47:02.245Z,91.70
2017-09-05T05:49:28.352Z,91.70
2017-09-05T05:51:54.393Z,91.70
2017-09-05T05:54:20.427Z,91.80
2017-09-05T05:56:46.457Z,93.00
2017-09-05T05:59:12.465Z,92.10
2017-09-05T06:01:38.642Z,91.80
2017-09-05T06:04:04.685Z,91.10
2017-09-05T06:06:30.731Z,91.00
2017-09-05T06:08:56.757Z,90.60
2017-09-05T06:11:22.811Z,90.30
2017-09-05T06:13:48.856Z,90.40
2017-09-05T06:16:14.912Z,90.50
2017-09-05T06:18:40.957Z,89.80
2017-09-05T06:21:07.025Z,90.20
2017-09-05T06:23:33.080Z,89.80
2017-09-05T06:25:59.122Z,90.00
2017-09-05T06:28:25.261Z,88.70
2017-09-05T06:30:52.025Z,88.50
2017-09-05T06:33:18.081Z,88.00
2017-09-05T06:35:44.149Z,84.80
2017-09-05T06:38:10.197Z,84.40
2017-09-05T06:40:36.220Z,83.30
2017-09-05T06:43:02.265Z,82.60
2017-09-05T06:45:28.324Z,82.20
2017-09-05T06:47:54.385Z,81.90
2017-09-05T06:50:20.410Z,81.20
2017-09-05T06:52:46.456Z,80.60
2017-09-05T06:55:12.473Z,80.30
2017-09-05T06:57:38.524Z,80.40
2017-09-05T07:00:04.524Z,80.40
2017-09-05T07:02:30.577Z,80.10
2017-09-05T07:04:56.593Z,80.20
2017-09-05T07:07:22.648Z,79.40
2017-09-05T07:09:48.671Z,78.60
2017-09-05T07:12:14.677Z,78.10
2017-09-05T07:14:40.730Z,77.70
2017-09-05T07:17:06.767Z,76.80
2017-09-05T07:19:32.822Z,75.80
2017-09-05T07:21:58.852Z,76.00
2017-09-05T07:24:24.894Z,76.30
2017-09-05T07:26:50.934Z,76.30
2017-09-05T07:29:16.998Z,75.80
2017-09-05T07:31:43.017Z,75.40
2017-09-05T07:34:09.053Z,74.80
2017-09-05T07:36:35.104Z,74.60
2017-09-05T07:39:01.160Z,75.30
2017-09-05T07:41:27.208Z,75.30
2017-09-05T07:43:53.265Z,74.90
2017-09-05T07:46:19.322Z,75.60
2017-09-05T07:48:45.365Z,75.10
2017-09-05T07:51:11.408Z,74.80
2017-09-05T07:53:37.442Z,74.50
2017-09-05T07:56:03.443Z,75.70
2017-09-05T07:58:29.485Z,74.90
2017-09-05T08:00:55.530Z,75.00
2017-09-05T08:03:21.551Z,73.50
2017-09-05T08:05:47.552Z,74.00
2017-09-05T08:08:13.589Z,73.50
2017-09-05T08:10:39.617Z,72.70
2017-09-05T08:13:05.645Z,71.60
2017-09-05T08:15:31.700Z,71.30
2017-09-05T08:17:57.717Z,72.80
2017-09-05T08:20:23.773Z,68.10
2017-09-05T08:22:49.825Z,69.20
2017-09-05T08:25:15.853Z,68.00
2017-09-05T08:27:41.906Z,68.50
2017-09-05T08:30:07.965Z,65.70
2017-09-05T08:32:33.978Z,65.90
2017-09-05T08:34:59.991Z,66.90
2017-09-05T08:37:26.049Z,64.90
2017-09-05T08:39:52.085Z,65.00
2017-09-05T08:42:18.081Z,64.30
2017-09-05T08:44:44.085Z,63.80
2017-09-05T08:47:10.116Z,64.40
2017-09-05T08:49:36.133Z,63.20
2017-09-05T08:52:02.153Z,63.90
2017-09-05T08:54:28.161Z,62.40
2017-09-05T08:56:54.190Z,62.70
2017-09-05T08:59:20.249Z,62.60
2017-09-05T09:01:46.271Z,60.70
2017-09-05T09:04:12.293Z,59.80
2017-09-05T09:06:38.340Z,59.30
2017-09-05T09:09:04.345Z,57.90
2017-09-05T09:11:30.353Z,58.10
2017-09-05T09:13:56.361Z,57.00
2017-09-05T09:16:22.361Z,54.70
2017-09-05T09:18:48.374Z,56.00
2017-09-05T09:21:14.413Z,55.20
2017-09-05T09:23:40.440Z,50.30
2017-09-05T09:26:06.470Z,49.60
2017-09-05T09:28:32.493Z,43.30
2017-09-05T09:30:58.489Z,46.10
2017-09-05T09:33:24.595Z,46.90
2017-09-05T09:35:50.639Z,46.70
2017-09-05T09:38:16.643Z,45.50
2017-09-05T09:40:42.661Z,43.40
2017-09-05T09:43:08.672Z,43.30
2017-09-05T09:45:34.690Z,42.70
2017-09-05T09:48:00.702Z,43.10
2017-09-05T09:50:26.753Z,43.80
2017-09-05T09:52:52.785Z,45.90
2017-09-05T09:55:18.817Z,47.20
2017-09-05T09:57:44.809Z,46.60
2017-09-05T10:00:10.865Z,47.60
2017-09-05T10:02:36.879Z,47.70
2017-09-05T10:05:02.906Z,47.80
2017-09-05T10:07:28.909Z,49.00
2017-09-05T10:09:54.934Z,47.50
2017-09-05T10:12:20.945Z,47.80
2017-09-05T10:14:46.965Z,48.70
2017-09-05T10:17:12.983Z,49.00
2017-09-05T10:19:38.994Z,49.20
2017-09-05T10:22:05.037Z,50.20
2017-09-05T10:24:31.043Z,49.10
2017-09-05T10:26:57.061Z,49.30
2017-09-05T10:29:23.096Z,45.90
2017-09-05T10:31:49.109Z,47.70
2017-09-05T10:34:15.122Z,45.60
2017-09-05T10:36:41.131Z,44.50
2017-09-05T10:39:07.141Z,44.70
2017-09-05T10:41:33.177Z,43.30
2017-09-05T10:43:59.208Z,41.90
2017-09-05T10:46:25.235Z,43.10
2017-09-05T10:48:51.253Z,41.40
2017-09-05T10:51:17.272Z,39.50
2017-09-05T10:53:43.293Z,37.40
2017-09-05T10:56:09.346Z,39.20
2017-09-05T10:58:35.381Z,39.70
2017-09-05T11:01:01.396Z,37.80
2017-09-05T11:03:27.476Z,38.60
2017-09-05T11:05:53.502Z,36.50
2017-09-05T11:08:19.513Z,37.50
2017-09-05T11:10:45.533Z,36.40
2017-09-05T11:13:11.567Z,37.10
2017-09-05T11:15:37.606Z,36.90
2017-09-05T11:18:03.638Z,37.10
2017-09-05T11:20:29.674Z,37.80
2017-09-05T11:22:55.725Z,39.00
2017-09-05T11:25:21.795Z,37.80
2017-09-05T11:27:47.826Z,38.00
2017-09-05T11:30:13.849Z,37.90
2017-09-05T11:32:39.864Z,36.80
2017-09-05T11:35:05.869Z,38.50
2017-09-05T11:37:31.895Z,38.40
2017-09-05T11:39:57.926Z,38.70
2017-09-05T11:42:23.937Z,39.20
2017-09-05T11:44:49.965Z,40.60
2017-09-05T11:47:16.048Z,37.30
2017-09-05T11:49:42.054Z,40.90
2017-09-05T11:52:08.094Z,39.20
2017-09-05T11:54:34.130Z,40.00
2017-09-05T11:57:00.177Z,36.90
2017-09-05T11:59:26.204Z,37.30
2017-09-05T12:01:52.266Z,36.70
2017-09-05T12:04:18.320Z,37.20
2017-09-05T12:06:44.324Z,35.60
2017-09-05T12:09:10.342Z,35.00
2017-09-05T12:11:36.362Z,36.10
2017-09-05T12:14:02.400Z,37.00
2017-09-05T12:16:28.414Z,34.70
2017-09-05T12:18:54.438Z,33.00
2017-09-05T12:21:20.453Z,33.90
2017-09-05T12:23:46.457Z,31.20
2017-09-05T12:26:12.502Z,31.50
2017-09-05T12:28:38.537Z,32.00
2017-09-05T12:31:04.554Z,33.40
2017-09-05T12:33:30.634Z,31.20
2017-09-05T12:35:56.685Z,35.30
2017-09-05T12:38:22.735Z,35.60
2017-09-05T12:40:48.768Z,35.90
2017-09-05T12:43:14.809Z,36.50
2017-09-05T12:45:40.880Z,36.20
2017-09-05T12:48:07.003Z,37.10
2017-09-05T12:50:33.088Z,38.40
2017-09-05T12:52:59.149Z,37.40
2017-09-05T12:55:25.232Z,38.80
2017-09-05T12:57:51.285Z,39.60
2017-09-05T13:00:17.324Z,40.20
2017-09-05T13:02:43.382Z,39.40
2017-09-05T13:05:09.454Z,39.70
2017-09-05T13:07:35.513Z,38.70
2017-09-05T13:10:01.565Z,39.40
2017-09-05T13:12:27.617Z,39.00
2017-09-05T13:14:53.654Z,40.00
2017-09-05T13:17:19.786Z,41.00
2017-09-05T13:19:45.873Z,39.50
2017-09-05T13:22:11.922Z,41.70
2017-09-05T13:24:38.029Z,43.50
2017-09-05T13:27:04.105Z,44.10
2017-09-05T13:29:30.168Z,44.60
2017-09-05T13:31:56.245Z,45.80
2017-09-05T13:34:22.328Z,46.40
2017-09-05T13:36:48.457Z,46.20
2017-09-05T13:39:14.517Z,46.50
2017-09-05T13:41:40.564Z,46.40
2017-09-05T13:44:06.628Z,47.20
2017-09-05T13:46:32.677Z,48.30
2017-09-05T13:48:58.726Z,49.90
2017-09-05T13:51:24.746Z,48.90
2017-09-05T13:53:50.804Z,48.10
2017-09-05T13:56:16.870Z,47.80
2017-09-05T13:58:42.900Z,48.10
2017-09-05T14:01:08.945Z,47.90
2017-09-05T14:03:35.034Z,48.60
2017-09-05T14:06:01.122Z,48.90
2017-09-05T14:08:27.153Z,50.30
2017-09-05T14:10:53.203Z,49.90
2017-09-05T14:13:19.228Z,50.10
2017-09-05T14:15:45.264Z,49.60
2017-09-05T14:18:11.316Z,50.10
2017-09-05T14:20:37.346Z,49.90
2017-09-05T14:23:03.377Z,50.60
2017-09-05T14:25:29.441Z,51.30
2017-09-05T14:27:55.524Z,51.90
2017-09-05T14:30:21.597Z,52.30
2017-09-05T14:32:47.636Z,52.30
2017-09-05T14:35:13.738Z,53.50
2017-09-05T14:37:39.921Z,54.00
2017-09-05T14:40:06.002Z,55.70
2017-09-05T14:42:32.030Z,56.00
2017-09-05T14:44:58.065Z,56.50
2017-09-05T14:47:24.097Z,56.50
2017-09-05T14:49:50.152Z,56.70
2017-09-05T14:52:16.221Z,57.60
2017-09-05T14:54:42.276Z,56.80
2017-09-05T14:57:08.317Z,56.90
2017-09-05T14:59:34.413Z,57.40
2017-09-05T15:02:00.482Z,56.90
2017-09-05T15:04:26.545Z,57.60
2017-09-05T15:06:53.069Z,58.00
2017-09-05T15:09:19.309Z,57.30
2017-09-05T15:11:45.413Z,57.00
2017-09-05T15:14:11.528Z,57.00
2017-09-05T15:16:37.656Z,57.70
2017-09-05T15:19:04.551Z,58.40
2017-09-05T15:21:31.772Z,58.50
2017-09-05T15:23:58.663Z,58.80
2017-09-05T15:26:25.826Z,59.10
2017-09-05T15:28:52.036Z,59.50
2017-09-05T15:31:18.768Z,60.00
2017-09-05T15:33:45.268Z,60.20
2017-09-05T15:36:11.846Z,60.00
2017-09-05T15:38:38.008Z,59.90
2017-09-05T15:41:04.052Z,59.90
2017-09-05T15:43:30.872Z,60.20
2017-09-05T15:45:57.121Z,60.30
2017-09-05T15:48:23.153Z,60.70
2017-09-05T15:50:49.186Z,60.90
2017-09-05T15:53:15.649Z,61.40
2017-09-05T15:55:41.906Z,61.00
2017-09-05T15:58:07.985Z,61.40
2017-09-05T16:00:34.013Z,62.50
2017-09-05T16:03:00.056Z,63.00
2017-09-05T16:05:26.105Z,63.50
2017-09-05T16:07:52.127Z,64.00
2017-09-05T16:10:18.206Z,64.40
2017-09-05T16:12:44.255Z,64.40
2017-09-05T16:15:10.320Z,64.70
2017-09-05T16:17:36.390Z,65.40
2017-09-05T16:20:18.928Z,66.60
2017-09-05T16:22:45.086Z,67.10
2017-09-05T16:25:11.291Z,67.70
2017-09-05T16:27:37.364Z,68.10
2017-09-05T16:30:03.418Z,68.60
2017-09-05T16:32:29.450Z,69.30
2017-09-05T16:34:55.530Z,69.50
2017-09-05T16:37:21.565Z,70.20
2017-09-05T16:39:47.612Z,70.90
2017-09-05T16:42:13.698Z,71.10
2017-09-05T16:44:39.768Z,70.80
2017-09-05T16:47:05.826Z,71.00
2017-09-05T16:49:31.883Z,71.10
2017-09-05T16:51:57.926Z,70.90
2017-09-05T16:54:23.957Z,71.00
2017-09-05T16:56:49.998Z,71.50
2017-09-05T16:59:16.064Z,71.60
2017-09-05T17:01:42.144Z,71.60
2017-09-05T17:04:08.999Z,71.60
2017-09-05T17:06:36.578Z,71.10
2017-09-05T17:09:05.187Z,71.00
2017-09-05T17:11:31.311Z,71.60
2017-09-05T17:13:57.384Z,71.10
2017-09-05T17:16:23.505Z,71.30
2017-09-05T17:18:49.605Z,71.30
2017-09-05T17:21:15.675Z,71.10
2017-09-05T17:23:41.718Z,71.10
2017-09-05T17:26:07.798Z,71.70
2017-09-05T17:28:33.825Z,71.70
2017-09-05T17:30:59.897Z,71.20
2017-09-05T17:33:25.980Z,71.20
2017-09-05T17:35:55.149Z,71.40
2017-09-05T17:38:21.274Z,71.60
2017-09-05T17:40:47.317Z,71.40
2017-09-05T17:43:13.381Z,71.10
2017-09-05T17:45:39.457Z,71.30
2017-09-05T17:48:05.567Z,71.10
2017-09-05T17:50:31.656Z,71.40
2017-09-05T17:52:57.749Z,71.60
2017-09-05T17:55:23.810Z,71.50
2017-09-05T17:57:49.858Z,71.20
2017-09-05T18:00:15.951Z,71.70
2017-09-05T18:02:42.032Z,71.50
2017-09-05T18:05:08.074Z,71.00
2017-09-05T18:07:34.132Z,71.20
2017-09-05T18:10:00.337Z,71.30
2017-09-05T18:12:26.413Z,71.00
2017-09-05T18:14:52.430Z,71.30
2017-09-05T18:17:18.485Z,71.30
2017-09-05T18:19:44.610Z,71.40
2017-09-05T18:22:10.690Z,71.40
2017-09-05T18:24:36.800Z,71.60
2017-09-05T18:27:02.865Z,71.40
2017-09-05T18:29:28.945Z,71.50
2017-09-05T18:31:55.020Z,71.70
2017-09-05T18:34:21.085Z,72.10
2017-09-05T18:36:47.238Z,72.00
2017-09-05T18:39:14.322Z,72.10
2017-09-05T18:41:40.385Z,72.20
2017-09-05T18:44:07.334Z,72.10
2017-09-05T18:46:33.498Z,72.00
2017-09-05T18:48:59.626Z,72.40
2017-09-05T18:51:25.737Z,72.50
2017-09-05T18:53:51.786Z,72.20
2017-09-05T18:56:17.897Z,72.30
2017-09-05T18:58:43.958Z,71.80
2017-09-05T19:01:09.981Z,72.50
2017-09-05T19:03:36.037Z,72.30
2017-09-05T19:06:02.084Z,73.30
2017-09-05T19:08:28.138Z,72.50
2017-09-05T19:10:54.251Z,72.20
2017-09-05T19:13:20.275Z,72.10
2017-09-05T19:15:46.359Z,72.80
2017-09-05T19:18:12.398Z,72.40
2017-09-05T19:20:38.457Z,72.50
2017-09-05T19:23:04.534Z,72.50
2017-09-05T19:25:30.616Z,72.70
2017-09-05T19:27:56.651Z,72.60
2017-09-05T19:30:22.777Z,73.40
2017-09-05T19:32:48.803Z,73.10
2017-09-05T19:35:14.825Z,73.70
2017-09-05T19:37:40.858Z,73.80
2017-09-05T19:40:06.922Z,73.80
2017-09-05T19:42:32.977Z,74.00
2017-09-05T19:44:58.997Z,74.00
2017-09-05T19:47:25.033Z,74.20
2017-09-05T19:49:51.323Z,74.60
2017-09-05T19:52:17.520Z,75.50
2017-09-05T19:54:43.645Z,74.70
2017-09-05T19:57:09.803Z,75.10
2017-09-05T19:59:35.874Z,75.10
2017-09-05T20:02:01.955Z,75.30
2017-09-05T20:04:28.035Z,75.40
2017-09-05T20:06:54.109Z,75.20
2017-09-05T20:09:20.177Z,75.10
2017-09-05T20:11:46.213Z,75.80
2017-09-05T20:14:12.293Z,75.20
2017-09-05T20:16:38.329Z,75.30
2017-09-05T20:19:04.398Z,75.10
2017-09-05T20:21:30.445Z,75.30
2017-09-05T20:23:56.489Z,75.40
2017-09-05T20:26:22.512Z,75.70
2017-09-05T20:28:48.575Z,75.70
2017-09-05T20:31:14.577Z,76.00
2017-09-05T20:33:40.648Z,76.30
2017-09-05T20:36:06.701Z,76.40
2017-09-05T20:38:32.768Z,76.90
2017-09-05T20:40:58.809Z,77.60
2017-09-05T20:43:24.846Z,77.60
2017-09-05T20:45:50.885Z,77.70
2017-09-05T20:48:17.311Z,77.30
2017-09-05T20:50:43.574Z,77.60
2017-09-05T20:53:09.790Z,77.60
2017-09-05T20:55:35.830Z,77.40
2017-09-05T20:58:01.869Z,77.40
2017-09-05T21:00:27.913Z,77.40
2017-09-05T21:02:53.976Z,77.80
2017-09-05T21:05:20.041Z,78.00
2017-09-05T21:07:46.080Z,78.80
2017-09-05T21:10:12.137Z,78.40
2017-09-05T21:12:38.190Z,78.60
2017-09-05T21:15:04.254Z,78.80
2017-09-05T21:17:30.286Z,78.80
2017-09-05T21:19:56.319Z,79.20
2017-09-05T21:22:22.376Z,79.00
2017-09-05T21:24:48.453Z,79.60
2017-09-05T21:27:14.489Z,79.70
2017-09-05T21:29:40.557Z,79.60
2017-09-05T21:32:06.595Z,79.80
2017-09-05T21:34:32.661Z,79.90
2017-09-05T21:36:58.748Z,80.30
2017-09-05T21:39:24.816Z,80.80
2017-09-05T21:41:51.566Z,80.70
2017-09-05T21:44:18.352Z,81.20
2017-09-05T21:46:44.397Z,81.10
2017-09-05T21:49:10.438Z,82.30
2017-09-05T21:51:36.502Z,81.70
2017-09-05T21:54:02.560Z,81.70
2017-09-05T21:56:28.629Z,81.80
2017-09-05T21:58:54.686Z,81.60
2017-09-05T22:01:20.742Z,81.70
2017-09-05T22:03:46.807Z,81.70
2017-09-05T22:06:12.858Z,81.90
2017-09-05T22:08:38.916Z,81.60
2017-09-05T22:11:04.978Z,81.30
2017-09-05T22:13:31.033Z,80.90
2017-09-05T22:15:57.063Z,81.20
2017-09-05T22:18:29.385Z,81.20
2017-09-05T22:21:01.486Z,81.40
2017-09-05T22:23:27.522Z,81.50
2017-09-05T22:29:04.097Z,81.60
2017-09-05T22:31:30.132Z,81.80
2017-09-05T22:33:56.161Z,82.20
2017-09-05T22:36:22.216Z,81.80
2017-09-05T22:38:48.267Z,81.90
2017-09-05T22:41:14.331Z,82.30
2017-09-05T22:43:40.400Z,82.10
2017-09-05T22:46:06.446Z,82.30
2017-09-05T22:48:32.481Z,82.80
2017-09-05T22:50:58.546Z,82.90
2017-09-05T22:53:24.632Z,83.00
2017-09-05T22:55:50.685Z,83.70
2017-09-05T22:58:16.710Z,84.30
2017-09-05T23:00:42.731Z,84.70
2017-09-05T23:03:08.777Z,85.60
2017-09-05T23:05:34.849Z,87.10
2017-09-05T23:08:00.885Z,87.90
2017-09-05T23:10:26.932Z,89.00
2017-09-05T23:12:52.999Z,91.10
2017-09-05T23:15:19.061Z,92.20
2017-09-05T23:17:45.081Z,93.00
2017-09-05T23:20:11.126Z,93.50
2017-09-05T23:22:37.166Z,94.20
2017-09-05T23:25:03.246Z,95.10
2017-09-05T23:27:29.282Z,95.80
2017-09-05T23:29:55.298Z,96.30
2017-09-05T23:32:21.333Z,96.70
2017-09-05T23:34:47.425Z,96.90
2017-09-05T23:37:13.547Z,97.10
2017-09-05T23:39:39.567Z,97.30
2017-09-05T23:42:05.601Z,97.40
2017-09-05T23:44:31.633Z,97.10
2017-09-05T23:46:57.664Z,97.10
2017-09-05T23:49:23.692Z,96.90
2017-09-05T23:51:49.728Z,97.30
2017-09-05T23:54:15.761Z,97.30
2017-09-05T23:56:41.827Z,97.40
2017-09-05T23:59:07.889Z,97.50
